sensor_id;sensor_type;location;lat;lon;timestamp;P1;durP1;ratioP1;P2;durP2;ratioP2
25780;SDS011;13626;48.128;11.628;2024-01-30T00:02:17;14.27;;;7.18;;
25780;SDS011;13626;48.128;11.628;2024-01-30T00:04:44;12.95;;;6.70;;
25780;SDS011;13626;48.128;11.628;2024-01-30T00:07:11;11.27;;;6.00;;
25780;SDS011;13626;48.128;11.628;2024-01-30T00:09:39;11.23;;;6.82;;
25780;SDS011;13626;48.128;11.628;2024-01-30T00:12:06;14.50;;;7.00;;
25780;SDS011;13626;48.128;11.628;2024-01-30T00:14:33;12.98;;;6.28;;
25780;SDS011;13626;48.128;11.628;2024-01-30T00:17:01;11.15;;;6.40;;
25780;SDS011;13626;48.128;11.628;2024-01-30T00:19:28;12.00;;;6.20;;
25780;SDS011;13626;48.128;11.628;2024-01-30T00:21:55;12.48;;;6.25;;
25780;SDS011;13626;48.128;11.628;2024-01-30T00:24:23;10.38;;;5.72;;
25780;SDS011;13626;48.128;11.628;2024-01-30T00:26:50;10.30;;;6.00;;
25780;SDS011;13626;48.128;11.628;2024-01-30T00:29:18;11.63;;;5.82;;
25780;SDS011;13626;48.128;11.628;2024-01-30T00:31:46;11.00;;;5.75;;
25780;SDS011;13626;48.128;11.628;2024-01-30T00:34:13;12.23;;;5.95;;
25780;SDS011;13626;48.128;11.628;2024-01-30T00:36:41;11.43;;;5.50;;
25780;SDS011;13626;48.128;11.628;2024-01-30T00:39:08;11.23;;;5.82;;
25780;SDS011;13626;48.128;11.628;2024-01-30T00:41:35;11.18;;;5.72;;
25780;SDS011;13626;48.128;11.628;2024-01-30T00:44:03;16.58;;;6.90;;
25780;SDS011;13626;48.128;11.628;2024-01-30T00:46:30;14.40;;;6.50;;
25780;SDS011;13626;48.128;11.628;2024-01-30T00:48:57;11.88;;;6.25;;
25780;SDS011;13626;48.128;11.628;2024-01-30T00:51:24;10.75;;;5.53;;
25780;SDS011;13626;48.128;11.628;2024-01-30T00:53:52;11.10;;;6.00;;
25780;SDS011;13626;48.128;11.628;2024-01-30T00:56:19;12.43;;;6.20;;
25780;SDS011;13626;48.128;11.628;2024-01-30T00:58:46;11.88;;;6.45;;
25780;SDS011;13626;48.128;11.628;2024-01-30T01:01:13;9.68;;;5.55;;
25780;SDS011;13626;48.128;11.628;2024-01-30T01:03:41;11.88;;;5.63;;
25780;SDS011;13626;48.128;11.628;2024-01-30T01:06:10;9.48;;;5.20;;
25780;SDS011;13626;48.128;11.628;2024-01-30T01:08:37;9.82;;;5.38;;
25780;SDS011;13626;48.128;11.628;2024-01-30T01:11:05;12.38;;;5.75;;
25780;SDS011;13626;48.128;11.628;2024-01-30T01:13:32;8.98;;;4.68;;
25780;SDS011;13626;48.128;11.628;2024-01-30T01:15:59;7.95;;;4.95;;
25780;SDS011;13626;48.128;11.628;2024-01-30T01:18:26;9.35;;;4.93;;
25780;SDS011;13626;48.128;11.628;2024-01-30T01:20:54;12.88;;;5.53;;
25780;SDS011;13626;48.128;11.628;2024-01-30T01:23:21;11.05;;;5.43;;
25780;SDS011;13626;48.128;11.628;2024-01-30T01:25:49;11.90;;;6.15;;
25780;SDS011;13626;48.128;11.628;2024-01-30T01:28:16;10.55;;;4.97;;
25780;SDS011;13626;48.128;11.628;2024-01-30T01:30:44;17.25;;;7.63;;
25780;SDS011;13626;48.128;11.628;2024-01-30T01:33:11;13.15;;;5.53;;
25780;SDS011;13626;48.128;11.628;2024-01-30T01:35:41;12.65;;;5.40;;
25780;SDS011;13626;48.128;11.628;2024-01-30T01:38:08;11.32;;;5.25;;
25780;SDS011;13626;48.128;11.628;2024-01-30T01:40:35;10.63;;;5.32;;
25780;SDS011;13626;48.128;11.628;2024-01-30T01:43:05;9.32;;;5.40;;
25780;SDS011;13626;48.128;11.628;2024-01-30T01:45:33;10.77;;;5.18;;
25780;SDS011;13626;48.128;11.628;2024-01-30T01:48:00;9.18;;;5.25;;
25780;SDS011;13626;48.128;11.628;2024-01-30T01:50:27;8.65;;;5.50;;
25780;SDS011;13626;48.128;11.628;2024-01-30T01:52:55;9.35;;;4.50;;
25780;SDS011;13626;48.128;11.628;2024-01-30T01:55:23;10.18;;;5.00;;
25780;SDS011;13626;48.128;11.628;2024-01-30T01:57:53;9.48;;;5.28;;
25780;SDS011;13626;48.128;11.628;2024-01-30T02:00:20;7.63;;;4.55;;
25780;SDS011;13626;48.128;11.628;2024-01-30T02:02:48;8.85;;;5.22;;
25780;SDS011;13626;48.128;11.628;2024-01-30T02:05:16;9.25;;;4.38;;
25780;SDS011;13626;48.128;11.628;2024-01-30T02:07:43;8.02;;;4.28;;
25780;SDS011;13626;48.128;11.628;2024-01-30T02:10:11;9.93;;;5.15;;
25780;SDS011;13626;48.128;11.628;2024-01-30T02:12:39;8.80;;;4.75;;
25780;SDS011;13626;48.128;11.628;2024-01-30T02:15:06;10.35;;;5.13;;
25780;SDS011;13626;48.128;11.628;2024-01-30T02:17:34;11.75;;;5.57;;
25780;SDS011;13626;48.128;11.628;2024-01-30T02:20:01;9.98;;;4.97;;
25780;SDS011;13626;48.128;11.628;2024-01-30T02:22:30;9.23;;;4.70;;
25780;SDS011;13626;48.128;11.628;2024-01-30T02:24:58;7.95;;;5.05;;
25780;SDS011;13626;48.128;11.628;2024-01-30T02:27:25;11.65;;;4.85;;
25780;SDS011;13626;48.128;11.628;2024-01-30T02:29:52;9.02;;;4.65;;
25780;SDS011;13626;48.128;11.628;2024-01-30T02:32:19;10.35;;;4.65;;
25780;SDS011;13626;48.128;11.628;2024-01-30T02:34:47;10.93;;;5.22;;
25780;SDS011;13626;48.128;11.628;2024-01-30T02:37:14;9.40;;;5.50;;
25780;SDS011;13626;48.128;11.628;2024-01-30T02:39:41;11.10;;;4.97;;
25780;SDS011;13626;48.128;11.628;2024-01-30T02:42:08;10.70;;;4.82;;
25780;SDS011;13626;48.128;11.628;2024-01-30T02:44:36;11.85;;;5.57;;
25780;SDS011;13626;48.128;11.628;2024-01-30T02:47:03;10.48;;;5.22;;
25780;SDS011;13626;48.128;11.628;2024-01-30T02:49:30;10.02;;;4.95;;
25780;SDS011;13626;48.128;11.628;2024-01-30T02:51:58;9.13;;;5.35;;
25780;SDS011;13626;48.128;11.628;2024-01-30T02:54:25;10.07;;;4.93;;
25780;SDS011;13626;48.128;11.628;2024-01-30T02:56:52;9.90;;;5.65;;
25780;SDS011;13626;48.128;11.628;2024-01-30T02:59:19;9.02;;;5.05;;
25780;SDS011;13626;48.128;11.628;2024-01-30T03:01:48;8.15;;;4.88;;
25780;SDS011;13626;48.128;11.628;2024-01-30T03:04:15;8.77;;;4.30;;
25780;SDS011;13626;48.128;11.628;2024-01-30T03:06:46;8.90;;;4.40;;
25780;SDS011;13626;48.128;11.628;2024-01-30T03:09:15;7.55;;;4.35;;
25780;SDS011;13626;48.128;11.628;2024-01-30T03:11:42;6.72;;;3.85;;
25780;SDS011;13626;48.128;11.628;2024-01-30T03:14:09;5.85;;;3.60;;
25780;SDS011;13626;48.128;11.628;2024-01-30T03:16:37;5.20;;;3.58;;
25780;SDS011;13626;48.128;11.628;2024-01-30T03:19:07;6.85;;;4.18;;
25780;SDS011;13626;48.128;11.628;2024-01-30T03:21:35;8.65;;;3.92;;
25780;SDS011;13626;48.128;11.628;2024-01-30T03:24:03;5.10;;;3.35;;
25780;SDS011;13626;48.128;11.628;2024-01-30T03:26:30;7.65;;;4.00;;
25780;SDS011;13626;48.128;11.628;2024-01-30T03:28:57;6.82;;;3.50;;
25780;SDS011;13626;48.128;11.628;2024-01-30T03:31:24;6.65;;;3.67;;
25780;SDS011;13626;48.128;11.628;2024-01-30T03:33:52;6.88;;;4.07;;
25780;SDS011;13626;48.128;11.628;2024-01-30T03:36:19;8.10;;;3.80;;
25780;SDS011;13626;48.128;11.628;2024-01-30T03:38:47;6.18;;;3.72;;
25780;SDS011;13626;48.128;11.628;2024-01-30T03:41:14;5.65;;;3.55;;
25780;SDS011;13626;48.128;11.628;2024-01-30T03:43:41;7.85;;;3.70;;
25780;SDS011;13626;48.128;11.628;2024-01-30T03:46:09;6.28;;;3.65;;
25780;SDS011;13626;48.128;11.628;2024-01-30T03:48:36;6.05;;;3.28;;
25780;SDS011;13626;48.128;11.628;2024-01-30T03:51:03;5.18;;;3.20;;
25780;SDS011;13626;48.128;11.628;2024-01-30T03:53:31;4.90;;;3.10;;
25780;SDS011;13626;48.128;11.628;2024-01-30T03:55:58;6.07;;;3.70;;
25780;SDS011;13626;48.128;11.628;2024-01-30T03:58:25;7.28;;;3.38;;
25780;SDS011;13626;48.128;11.628;2024-01-30T04:00:53;6.68;;;3.00;;
25780;SDS011;13626;48.128;11.628;2024-01-30T04:03:20;6.30;;;3.38;;
25780;SDS011;13626;48.128;11.628;2024-01-30T04:05:47;5.30;;;3.38;;
25780;SDS011;13626;48.128;11.628;2024-01-30T04:08:14;6.05;;;3.08;;
25780;SDS011;13626;48.128;11.628;2024-01-30T04:10:42;6.07;;;3.33;;
25780;SDS011;13626;48.128;11.628;2024-01-30T04:13:09;4.57;;;3.00;;
25780;SDS011;13626;48.128;11.628;2024-01-30T04:15:38;5.13;;;3.20;;
25780;SDS011;13626;48.128;11.628;2024-01-30T04:18:05;5.78;;;3.20;;
25780;SDS011;13626;48.128;11.628;2024-01-30T04:20:33;6.63;;;3.13;;
25780;SDS011;13626;48.128;11.628;2024-01-30T04:23:00;4.07;;;2.90;;
25780;SDS011;13626;48.128;11.628;2024-01-30T04:25:27;5.90;;;2.80;;
25780;SDS011;13626;48.128;11.628;2024-01-30T04:27:56;5.47;;;2.92;;
25780;SDS011;13626;48.128;11.628;2024-01-30T04:30:24;4.97;;;3.20;;
25780;SDS011;13626;48.128;11.628;2024-01-30T04:32:51;4.13;;;2.95;;
25780;SDS011;13626;48.128;11.628;2024-01-30T04:35:18;5.57;;;2.78;;
25780;SDS011;13626;48.128;11.628;2024-01-30T04:37:51;5.70;;;3.00;;
25780;SDS011;13626;48.128;11.628;2024-01-30T04:40:19;6.05;;;2.88;;
25780;SDS011;13626;48.128;11.628;2024-01-30T04:42:46;4.20;;;2.63;;
25780;SDS011;13626;48.128;11.628;2024-01-30T04:45:13;4.45;;;2.50;;
25780;SDS011;13626;48.128;11.628;2024-01-30T04:47:40;6.97;;;3.20;;
25780;SDS011;13626;48.128;11.628;2024-01-30T04:50:08;5.00;;;3.15;;
25780;SDS011;13626;48.128;11.628;2024-01-30T04:52:35;5.97;;;2.90;;
25780;SDS011;13626;48.128;11.628;2024-01-30T04:55:03;4.30;;;2.95;;
25780;SDS011;13626;48.128;11.628;2024-01-30T04:57:30;7.10;;;3.50;;
25780;SDS011;13626;48.128;11.628;2024-01-30T04:59:59;6.65;;;2.90;;
25780;SDS011;13626;48.128;11.628;2024-01-30T05:02:27;7.88;;;2.70;;
25780;SDS011;13626;48.128;11.628;2024-01-30T05:04:54;5.57;;;2.72;;
25780;SDS011;13626;48.128;11.628;2024-01-30T05:07:21;5.05;;;2.80;;
25780;SDS011;13626;48.128;11.628;2024-01-30T05:09:49;7.40;;;2.90;;
25780;SDS011;13626;48.128;11.628;2024-01-30T05:12:16;8.88;;;2.70;;
25780;SDS011;13626;48.128;11.628;2024-01-30T05:14:43;5.57;;;2.90;;
25780;SDS011;13626;48.128;11.628;2024-01-30T05:17:11;5.35;;;2.60;;
25780;SDS011;13626;48.128;11.628;2024-01-30T05:19:39;5.38;;;2.92;;
25780;SDS011;13626;48.128;11.628;2024-01-30T05:22:06;4.40;;;2.65;;
25780;SDS011;13626;48.128;11.628;2024-01-30T05:24:33;4.10;;;2.72;;
25780;SDS011;13626;48.128;11.628;2024-01-30T05:27:01;10.10;;;3.58;;
25780;SDS011;13626;48.128;11.628;2024-01-30T05:29:28;7.40;;;3.08;;
25780;SDS011;13626;48.128;11.628;2024-01-30T05:31:55;4.65;;;2.58;;
25780;SDS011;13626;48.128;11.628;2024-01-30T05:34:23;6.32;;;2.65;;
25780;SDS011;13626;48.128;11.628;2024-01-30T05:36:50;4.60;;;2.47;;
25780;SDS011;13626;48.128;11.628;2024-01-30T05:39:17;3.60;;;2.45;;
25780;SDS011;13626;48.128;11.628;2024-01-30T05:41:45;3.72;;;2.30;;
25780;SDS011;13626;48.128;11.628;2024-01-30T05:44:13;4.90;;;2.33;;
25780;SDS011;13626;48.128;11.628;2024-01-30T05:46:40;4.13;;;2.47;;
25780;SDS011;13626;48.128;11.628;2024-01-30T05:49:08;6.15;;;2.97;;
25780;SDS011;13626;48.128;11.628;2024-01-30T05:51:35;4.82;;;2.50;;
25780;SDS011;13626;48.128;11.628;2024-01-30T05:54:02;4.05;;;2.65;;
25780;SDS011;13626;48.128;11.628;2024-01-30T05:56:30;5.93;;;2.53;;
25780;SDS011;13626;48.128;11.628;2024-01-30T05:58:57;5.32;;;2.50;;
25780;SDS011;13626;48.128;11.628;2024-01-30T06:01:25;4.05;;;2.70;;
25780;SDS011;13626;48.128;11.628;2024-01-30T06:03:52;3.63;;;2.22;;
25780;SDS011;13626;48.128;11.628;2024-01-30T06:06:19;5.55;;;2.88;;
25780;SDS011;13626;48.128;11.628;2024-01-30T06:08:47;4.85;;;2.65;;
25780;SDS011;13626;48.128;11.628;2024-01-30T06:11:14;7.07;;;2.70;;
25780;SDS011;13626;48.128;11.628;2024-01-30T06:13:41;3.83;;;2.30;;
25780;SDS011;13626;48.128;11.628;2024-01-30T06:16:09;5.10;;;2.25;;
25780;SDS011;13626;48.128;11.628;2024-01-30T06:18:38;5.97;;;2.90;;
25780;SDS011;13626;48.128;11.628;2024-01-30T06:21:05;5.40;;;2.50;;
25780;SDS011;13626;48.128;11.628;2024-01-30T06:23:35;7.82;;;2.22;;
25780;SDS011;13626;48.128;11.628;2024-01-30T06:26:02;6.63;;;2.78;;
25780;SDS011;13626;48.128;11.628;2024-01-30T06:28:30;6.07;;;2.70;;
25780;SDS011;13626;48.128;11.628;2024-01-30T06:30:57;3.53;;;2.30;;
25780;SDS011;13626;48.128;11.628;2024-01-30T06:33:24;4.85;;;2.63;;
25780;SDS011;13626;48.128;11.628;2024-01-30T06:35:52;5.78;;;2.58;;
25780;SDS011;13626;48.128;11.628;2024-01-30T06:38:19;4.97;;;2.47;;
25780;SDS011;13626;48.128;11.628;2024-01-30T06:40:46;7.22;;;2.53;;
25780;SDS011;13626;48.128;11.628;2024-01-30T06:43:13;6.95;;;2.40;;
25780;SDS011;13626;48.128;11.628;2024-01-30T06:45:41;5.38;;;2.20;;
25780;SDS011;13626;48.128;11.628;2024-01-30T06:48:09;3.47;;;2.08;;
25780;SDS011;13626;48.128;11.628;2024-01-30T06:50:36;5.85;;;2.20;;
25780;SDS011;13626;48.128;11.628;2024-01-30T06:53:03;6.20;;;2.78;;
25780;SDS011;13626;48.128;11.628;2024-01-30T06:55:31;7.40;;;3.83;;
25780;SDS011;13626;48.128;11.628;2024-01-30T06:57:58;6.18;;;2.60;;
25780;SDS011;13626;48.128;11.628;2024-01-30T07:00:25;5.55;;;2.20;;
25780;SDS011;13626;48.128;11.628;2024-01-30T07:02:53;4.15;;;2.30;;
25780;SDS011;13626;48.128;11.628;2024-01-30T07:05:20;5.53;;;2.55;;
25780;SDS011;13626;48.128;11.628;2024-01-30T07:07:48;6.63;;;2.92;;
25780;SDS011;13626;48.128;11.628;2024-01-30T07:10:15;6.10;;;2.78;;
25780;SDS011;13626;48.128;11.628;2024-01-30T07:12:43;8.30;;;2.60;;
25780;SDS011;13626;48.128;11.628;2024-01-30T07:15:10;2.78;;;2.10;;
25780;SDS011;13626;48.128;11.628;2024-01-30T07:17:38;5.40;;;2.65;;
25780;SDS011;13626;48.128;11.628;2024-01-30T07:20:06;7.00;;;2.63;;
25780;SDS011;13626;48.128;11.628;2024-01-30T07:22:33;4.28;;;2.47;;
25780;SDS011;13626;48.128;11.628;2024-01-30T07:25:01;5.88;;;2.85;;
25780;SDS011;13626;48.128;11.628;2024-01-30T07:27:28;7.72;;;2.83;;
25780;SDS011;13626;48.128;11.628;2024-01-30T07:29:55;8.60;;;2.90;;
25780;SDS011;13626;48.128;11.628;2024-01-30T07:32:23;6.82;;;2.30;;
25780;SDS011;13626;48.128;11.628;2024-01-30T07:34:50;4.80;;;2.40;;
25780;SDS011;13626;48.128;11.628;2024-01-30T07:37:32;3.08;;;2.25;;
25780;SDS011;13626;48.128;11.628;2024-01-30T07:39:59;6.68;;;2.67;;
25780;SDS011;13626;48.128;11.628;2024-01-30T07:42:27;6.72;;;2.25;;
25780;SDS011;13626;48.128;11.628;2024-01-30T07:44:54;9.15;;;2.80;;
25780;SDS011;13626;48.128;11.628;2024-01-30T07:47:22;3.60;;;2.50;;
25780;SDS011;13626;48.128;11.628;2024-01-30T07:49:49;7.53;;;2.45;;
25780;SDS011;13626;48.128;11.628;2024-01-30T07:52:17;5.13;;;2.67;;
25780;SDS011;13626;48.128;11.628;2024-01-30T07:54:45;6.05;;;2.60;;
25780;SDS011;13626;48.128;11.628;2024-01-30T07:57:12;3.88;;;2.35;;
25780;SDS011;13626;48.128;11.628;2024-01-30T07:59:41;5.90;;;2.20;;
25780;SDS011;13626;48.128;11.628;2024-01-30T08:02:09;3.83;;;2.40;;
25780;SDS011;13626;48.128;11.628;2024-01-30T08:04:36;3.50;;;2.15;;
25780;SDS011;13626;48.128;11.628;2024-01-30T08:07:03;6.88;;;2.78;;
25780;SDS011;13626;48.128;11.628;2024-01-30T08:09:30;5.43;;;3.00;;
25780;SDS011;13626;48.128;11.628;2024-01-30T08:11:58;6.82;;;2.33;;
25780;SDS011;13626;48.128;11.628;2024-01-30T08:14:25;5.45;;;2.50;;
25780;SDS011;13626;48.128;11.628;2024-01-30T08:16:53;5.13;;;2.50;;
25780;SDS011;13626;48.128;11.628;2024-01-30T08:19:20;7.55;;;2.50;;
25780;SDS011;13626;48.128;11.628;2024-01-30T08:21:47;5.53;;;2.78;;
25780;SDS011;13626;48.128;11.628;2024-01-30T08:24:14;5.03;;;3.05;;
25780;SDS011;13626;48.128;11.628;2024-01-30T08:26:42;6.22;;;3.08;;
25780;SDS011;13626;48.128;11.628;2024-01-30T08:29:09;5.93;;;2.88;;
25780;SDS011;13626;48.128;11.628;2024-01-30T08:31:37;4.75;;;2.70;;
25780;SDS011;13626;48.128;11.628;2024-01-30T08:34:04;4.00;;;2.88;;
25780;SDS011;13626;48.128;11.628;2024-01-30T08:36:31;5.28;;;3.35;;
25780;SDS011;13626;48.128;11.628;2024-01-30T08:38:59;5.10;;;2.92;;
25780;SDS011;13626;48.128;11.628;2024-01-30T08:41:30;6.82;;;3.63;;
25780;SDS011;13626;48.128;11.628;2024-01-30T08:43:57;7.22;;;3.85;;
25780;SDS011;13626;48.128;11.628;2024-01-30T08:46:24;5.13;;;3.28;;
25780;SDS011;13626;48.128;11.628;2024-01-30T08:48:52;6.45;;;3.15;;
25780;SDS011;13626;48.128;11.628;2024-01-30T08:51:19;7.35;;;3.40;;
25780;SDS011;13626;48.128;11.628;2024-01-30T08:53:47;5.07;;;3.15;;
25780;SDS011;13626;48.128;11.628;2024-01-30T08:56:14;4.88;;;3.20;;
25780;SDS011;13626;48.128;11.628;2024-01-30T08:58:42;4.80;;;3.30;;
25780;SDS011;13626;48.128;11.628;2024-01-30T09:01:10;10.05;;;3.90;;
25780;SDS011;13626;48.128;11.628;2024-01-30T09:03:37;5.78;;;3.63;;
25780;SDS011;13626;48.128;11.628;2024-01-30T09:06:12;8.68;;;3.65;;
25780;SDS011;13626;48.128;11.628;2024-01-30T09:08:39;6.00;;;3.45;;
25780;SDS011;13626;48.128;11.628;2024-01-30T09:11:11;5.05;;;3.30;;
25780;SDS011;13626;48.128;11.628;2024-01-30T09:13:38;6.07;;;2.83;;
25780;SDS011;13626;48.128;11.628;2024-01-30T09:16:06;5.95;;;3.35;;
25780;SDS011;13626;48.128;11.628;2024-01-30T09:18:34;9.75;;;3.95;;
25780;SDS011;13626;48.128;11.628;2024-01-30T09:21:01;8.38;;;3.80;;
25780;SDS011;13626;48.128;11.628;2024-01-30T09:23:28;3.97;;;3.10;;
25780;SDS011;13626;48.128;11.628;2024-01-30T09:25:56;6.43;;;3.58;;
25780;SDS011;13626;48.128;11.628;2024-01-30T09:28:23;7.45;;;3.38;;
25780;SDS011;13626;48.128;11.628;2024-01-30T09:30:53;8.85;;;3.72;;
25780;SDS011;13626;48.128;11.628;2024-01-30T09:33:20;8.90;;;3.60;;
25780;SDS011;13626;48.128;11.628;2024-01-30T09:35:47;11.82;;;4.00;;
25780;SDS011;13626;48.128;11.628;2024-01-30T09:38:15;8.82;;;3.55;;
25780;SDS011;13626;48.128;11.628;2024-01-30T09:40:42;9.35;;;3.83;;
25780;SDS011;13626;48.128;11.628;2024-01-30T09:43:09;8.93;;;3.92;;
25780;SDS011;13626;48.128;11.628;2024-01-30T09:45:44;7.30;;;3.65;;
25780;SDS011;13626;48.128;11.628;2024-01-30T09:48:12;8.13;;;4.05;;
25780;SDS011;13626;48.128;11.628;2024-01-30T09:50:39;6.68;;;3.47;;
25780;SDS011;13626;48.128;11.628;2024-01-30T09:53:07;5.75;;;3.67;;
25780;SDS011;13626;48.128;11.628;2024-01-30T09:55:35;10.50;;;4.28;;
25780;SDS011;13626;48.128;11.628;2024-01-30T09:58:03;9.32;;;4.30;;
25780;SDS011;13626;48.128;11.628;2024-01-30T10:00:30;8.70;;;4.25;;
25780;SDS011;13626;48.128;11.628;2024-01-30T10:02:57;9.52;;;3.95;;
25780;SDS011;13626;48.128;11.628;2024-01-30T10:05:28;5.88;;;3.55;;
25780;SDS011;13626;48.128;11.628;2024-01-30T10:08:00;11.80;;;4.13;;
25780;SDS011;13626;48.128;11.628;2024-01-30T10:10:29;7.50;;;3.45;;
25780;SDS011;13626;48.128;11.628;2024-01-30T10:12:56;8.65;;;3.97;;
25780;SDS011;13626;48.128;11.628;2024-01-30T10:15:25;8.00;;;3.55;;
25780;SDS011;13626;48.128;11.628;2024-01-30T10:17:54;8.23;;;3.60;;
25780;SDS011;13626;48.128;11.628;2024-01-30T10:20:22;7.70;;;3.83;;
25780;SDS011;13626;48.128;11.628;2024-01-30T10:22:51;8.70;;;4.13;;
25780;SDS011;13626;48.128;11.628;2024-01-30T10:25:19;9.48;;;3.72;;
25780;SDS011;13626;48.128;11.628;2024-01-30T10:27:52;6.80;;;3.70;;
25780;SDS011;13626;48.128;11.628;2024-01-30T10:30:21;9.88;;;4.07;;
25780;SDS011;13626;48.128;11.628;2024-01-30T10:32:48;7.82;;;4.80;;
25780;SDS011;13626;48.128;11.628;2024-01-30T10:35:16;15.07;;;4.72;;
25780;SDS011;13626;48.128;11.628;2024-01-30T10:37:45;10.82;;;4.57;;
25780;SDS011;13626;48.128;11.628;2024-01-30T10:40:14;9.02;;;4.00;;
25780;SDS011;13626;48.128;11.628;2024-01-30T10:42:44;11.57;;;4.10;;
25780;SDS011;13626;48.128;11.628;2024-01-30T10:45:14;12.00;;;4.60;;
25780;SDS011;13626;48.128;11.628;2024-01-30T10:47:49;9.18;;;4.10;;
25780;SDS011;13626;48.128;11.628;2024-01-30T10:50:16;10.32;;;4.25;;
25780;SDS011;13626;48.128;11.628;2024-01-30T10:52:44;10.90;;;4.22;;
25780;SDS011;13626;48.128;11.628;2024-01-30T10:55:11;9.75;;;4.07;;
25780;SDS011;13626;48.128;11.628;2024-01-30T10:57:39;7.47;;;3.83;;
25780;SDS011;13626;48.128;11.628;2024-01-30T11:00:13;10.27;;;4.30;;
25780;SDS011;13626;48.128;11.628;2024-01-30T11:02:45;13.82;;;4.40;;
25780;SDS011;13626;48.128;11.628;2024-01-30T11:05:12;16.52;;;4.38;;
25780;SDS011;13626;48.128;11.628;2024-01-30T11:07:42;10.00;;;3.28;;
25780;SDS011;13626;48.128;11.628;2024-01-30T11:10:09;14.60;;;4.47;;
25780;SDS011;13626;48.128;11.628;2024-01-30T11:12:41;8.80;;;4.18;;
25780;SDS011;13626;48.128;11.628;2024-01-30T11:15:12;17.15;;;4.38;;
25780;SDS011;13626;48.128;11.628;2024-01-30T11:20:22;13.15;;;3.90;;
25780;SDS011;13626;48.128;11.628;2024-01-30T11:22:52;13.85;;;4.25;;
25780;SDS011;13626;48.128;11.628;2024-01-30T11:25:20;9.80;;;3.30;;
25780;SDS011;13626;48.128;11.628;2024-01-30T11:27:50;20.48;;;3.90;;
25780;SDS011;13626;48.128;11.628;2024-01-30T11:30:35;10.65;;;3.10;;
25780;SDS011;13626;48.128;11.628;2024-01-30T11:35:34;14.35;;;3.22;;
25780;SDS011;13626;48.128;11.628;2024-01-30T11:38:03;6.68;;;3.20;;
25780;SDS011;13626;48.128;11.628;2024-01-30T11:40:31;9.02;;;3.05;;
25780;SDS011;13626;48.128;11.628;2024-01-30T11:43:00;6.95;;;2.88;;
25780;SDS011;13626;48.128;11.628;2024-01-30T11:45:42;9.90;;;3.17;;
25780;SDS011;13626;48.128;11.628;2024-01-30T11:48:11;13.75;;;3.20;;
25780;SDS011;13626;48.128;11.628;2024-01-30T11:50:39;11.48;;;3.22;;
25780;SDS011;13626;48.128;11.628;2024-01-30T11:53:07;7.47;;;2.35;;
25780;SDS011;13626;48.128;11.628;2024-01-30T11:55:34;9.80;;;2.70;;
25780;SDS011;13626;48.128;11.628;2024-01-30T11:58:04;9.07;;;2.40;;
25780;SDS011;13626;48.128;11.628;2024-01-30T12:00:31;7.40;;;2.70;;
25780;SDS011;13626;48.128;11.628;2024-01-30T12:03:00;7.82;;;2.60;;
25780;SDS011;13626;48.128;11.628;2024-01-30T12:05:28;10.45;;;4.07;;
25780;SDS011;13626;48.128;11.628;2024-01-30T12:07:56;7.28;;;3.35;;
25780;SDS011;13626;48.128;11.628;2024-01-30T12:10:28;8.48;;;2.88;;
25780;SDS011;13626;48.128;11.628;2024-01-30T12:12:55;9.70;;;2.63;;
25780;SDS011;13626;48.128;11.628;2024-01-30T12:15:24;9.95;;;3.40;;
25780;SDS011;13626;48.128;11.628;2024-01-30T12:17:51;10.30;;;2.70;;
25780;SDS011;13626;48.128;11.628;2024-01-30T12:20:19;6.65;;;2.90;;
25780;SDS011;13626;48.128;11.628;2024-01-30T12:22:49;11.27;;;2.85;;
25780;SDS011;13626;48.128;11.628;2024-01-30T12:25:17;5.25;;;2.80;;
25780;SDS011;13626;48.128;11.628;2024-01-30T12:27:46;6.95;;;2.65;;
25780;SDS011;13626;48.128;11.628;2024-01-30T12:30:17;7.95;;;3.03;;
25780;SDS011;13626;48.128;11.628;2024-01-30T12:32:45;6.85;;;2.53;;
25780;SDS011;13626;48.128;11.628;2024-01-30T12:35:15;6.68;;;3.03;;
25780;SDS011;13626;48.128;11.628;2024-01-30T12:37:43;6.53;;;2.78;;
25780;SDS011;13626;48.128;11.628;2024-01-30T12:40:11;7.72;;;2.58;;
25780;SDS011;13626;48.128;11.628;2024-01-30T12:42:41;5.72;;;2.78;;
25780;SDS011;13626;48.128;11.628;2024-01-30T12:45:09;4.85;;;3.00;;
25780;SDS011;13626;48.128;11.628;2024-01-30T12:47:36;10.38;;;2.72;;
25780;SDS011;13626;48.128;11.628;2024-01-30T12:50:04;6.18;;;2.10;;
25780;SDS011;13626;48.128;11.628;2024-01-30T12:52:31;5.03;;;2.17;;
25780;SDS011;13626;48.128;11.628;2024-01-30T12:54:59;9.13;;;2.70;;
25780;SDS011;13626;48.128;11.628;2024-01-30T12:57:26;7.75;;;3.22;;
25780;SDS011;13626;48.128;11.628;2024-01-30T12:59:53;4.85;;;2.45;;
25780;SDS011;13626;48.128;11.628;2024-01-30T13:02:20;4.78;;;2.10;;
25780;SDS011;13626;48.128;11.628;2024-01-30T13:04:48;6.75;;;2.25;;
25780;SDS011;13626;48.128;11.628;2024-01-30T13:07:16;6.57;;;2.30;;
25780;SDS011;13626;48.128;11.628;2024-01-30T13:09:44;5.68;;;1.85;;
25780;SDS011;13626;48.128;11.628;2024-01-30T13:12:11;7.80;;;2.05;;
25780;SDS011;13626;48.128;11.628;2024-01-30T13:14:39;8.50;;;2.20;;
25780;SDS011;13626;48.128;11.628;2024-01-30T13:17:06;6.60;;;2.95;;
25780;SDS011;13626;48.128;11.628;2024-01-30T13:19:33;4.15;;;2.08;;
25780;SDS011;13626;48.128;11.628;2024-01-30T13:22:00;5.82;;;2.50;;
25780;SDS011;13626;48.128;11.628;2024-01-30T13:24:28;4.28;;;2.08;;
25780;SDS011;13626;48.128;11.628;2024-01-30T13:26:55;6.57;;;2.42;;
25780;SDS011;13626;48.128;11.628;2024-01-30T13:29:22;6.20;;;2.63;;
25780;SDS011;13626;48.128;11.628;2024-01-30T13:31:50;7.88;;;2.42;;
25780;SDS011;13626;48.128;11.628;2024-01-30T13:34:17;5.65;;;2.20;;
25780;SDS011;13626;48.128;11.628;2024-01-30T13:36:45;3.35;;;1.95;;
25780;SDS011;13626;48.128;11.628;2024-01-30T13:39:12;6.03;;;2.15;;
25780;SDS011;13626;48.128;11.628;2024-01-30T13:41:43;4.43;;;2.53;;
25780;SDS011;13626;48.128;11.628;2024-01-30T13:44:11;8.63;;;3.47;;
25780;SDS011;13626;48.128;11.628;2024-01-30T13:46:39;12.77;;;3.40;;
25780;SDS011;13626;48.128;11.628;2024-01-30T13:49:06;11.23;;;4.13;;
25780;SDS011;13626;48.128;11.628;2024-01-30T13:51:34;8.52;;;2.90;;
25780;SDS011;13626;48.128;11.628;2024-01-30T13:54:01;7.20;;;3.08;;
25780;SDS011;13626;48.128;11.628;2024-01-30T13:56:28;12.18;;;3.10;;
25780;SDS011;13626;48.128;11.628;2024-01-30T13:58:56;12.75;;;3.35;;
25780;SDS011;13626;48.128;11.628;2024-01-30T14:01:24;13.25;;;3.72;;
25780;SDS011;13626;48.128;11.628;2024-01-30T14:03:51;7.80;;;3.33;;
25780;SDS011;13626;48.128;11.628;2024-01-30T14:06:19;14.10;;;3.78;;
25780;SDS011;13626;48.128;11.628;2024-01-30T14:08:46;9.57;;;3.55;;
25780;SDS011;13626;48.128;11.628;2024-01-30T14:11:22;13.43;;;3.50;;
25780;SDS011;13626;48.128;11.628;2024-01-30T14:13:50;18.60;;;3.95;;
25780;SDS011;13626;48.128;11.628;2024-01-30T14:16:17;13.90;;;4.10;;
25780;SDS011;13626;48.128;11.628;2024-01-30T14:18:44;13.50;;;3.50;;
25780;SDS011;13626;48.128;11.628;2024-01-30T14:21:14;9.00;;;3.55;;
25780;SDS011;13626;48.128;11.628;2024-01-30T14:23:41;12.07;;;4.05;;
25780;SDS011;13626;48.128;11.628;2024-01-30T14:26:09;12.07;;;4.03;;
25780;SDS011;13626;48.128;11.628;2024-01-30T14:28:36;9.70;;;4.10;;
25780;SDS011;13626;48.128;11.628;2024-01-30T14:31:04;14.40;;;3.45;;
25780;SDS011;13626;48.128;11.628;2024-01-30T14:33:31;15.65;;;3.95;;
25780;SDS011;13626;48.128;11.628;2024-01-30T14:35:58;10.27;;;3.50;;
25780;SDS011;13626;48.128;11.628;2024-01-30T14:38:26;12.05;;;3.30;;
25780;SDS011;13626;48.128;11.628;2024-01-30T14:40:54;9.27;;;2.95;;